Time;durP1;ratioP1;P1;durP2;ratioP2;P2;SDS_P1;SDS_P2;PMS_P1;PMS_P2;Temp;Humidity;BMP_temperature;BMP_pressure;BME280_temperature;BME280_humidity;BME280_pressure;Samples;Min_cycle;Max_cycle;Signal;HPM_P1;HPM_P2
2021/08/23 00:00:13;;;;;;;5.57;3.83;;;;;;;21.46;76.47;102605.56;5081227;28;20499;-69
2021/08/23 00:02:38;;;;;;;5.35;3.28;;;;;;;21.45;76.30;102606.53;5058829;28;20040;-69
2021/08/23 00:05:04;;;;;;;6.90;3.92;;;;;;;21.46;76.30;102604.69;5082276;28;20463;-69
2021/08/23 00:07:30;;;;;;;5.20;3.10;;;;;;;21.45;76.25;102606.53;5076366;28;20032;-69
2021/08/23 00:09:55;;;;;;;5.40;3.55;;;;;;;21.45;76.31;102614.53;5070059;28;20067;-69
2021/08/23 00:12:21;;;;;;;4.82;3.38;;;;;;;21.44;76.16;102601.38;5055752;28;20060;-69
2021/08/23 00:14:47;;;;;;;5.03;3.55;;;;;;;21.45;76.11;102611.03;5069979;28;20084;-69
2021/08/23 00:17:12;;;;;;;6.95;4.13;;;;;;;21.44;76.37;102612.88;5073354;28;20036;-69
2021/08/23 00:19:38;;;;;;;4.85;3.40;;;;;;;21.45;75.94;102613.72;5087638;28;20047;-69
2021/08/23 00:22:20;;;;;;;5.43;3.67;;;;;;;21.44;76.31;102612.88;5071659;28;20056;-69
2021/08/23 00:24:51;;;;;;;4.90;3.42;;;;;;;21.43;75.95;102616.56;5077698;28;20028;-69
2021/08/23 00:27:17;;;;;;;5.18;3.40;;;;;;;21.44;76.23;102612.03;5085003;28;20036;-69
2021/08/23 00:29:45;;;;;;;6.57;3.45;;;;;;;21.44;76.11;102609.38;5076732;28;20498;-69
2021/08/23 00:32:11;;;;;;;5.68;3.17;;;;;;;21.42;76.26;102601.53;5061391;28;20686;-69
2021/08/23 00:34:37;;;;;;;6.43;3.70;;;;;;;21.44;76.09;102617.38;5058993;28;20111;-69
2021/08/23 00:37:04;;;;;;;5.70;3.33;;;;;;;21.44;76.07;102612.88;5080638;28;20481;-69
2021/08/23 00:39:30;;;;;;;5.28;3.28;;;;;;;21.43;76.20;102615.72;5080278;28;20631;-69
2021/08/23 00:41:55;;;;;;;6.38;3.72;;;;;;;21.43;76.30;102616.56;5086516;28;20122;-69
2021/08/23 00:44:21;;;;;;;7.20;3.70;;;;;;;21.41;76.14;102610.53;5095119;28;20036;-69
2021/08/23 00:46:46;;;;;;;5.03;3.33;;;;;;;21.43;76.01;102616.56;5107963;28;20027;-69
2021/08/23 00:49:13;;;;;;;5.18;3.95;;;;;;;21.42;76.35;102614.88;5096821;28;20028;-69
2021/08/23 00:51:39;;;;;;;7.07;3.72;;;;;;;21.44;76.11;102620.88;5102519;28;20090;-69
2021/08/23 00:54:04;;;;;;;5.70;3.58;;;;;;;21.41;76.14;102605.22;5098103;28;20486;-69
2021/08/23 00:56:30;;;;;;;5.07;3.58;;;;;;;21.42;75.92;102614.06;5106678;28;20077;-69
2021/08/23 00:58:56;;;;;;;5.97;3.63;;;;;;;21.41;76.33;102607.88;5095927;28;20031;-69
2021/08/23 01:01:34;;;;;;;6.53;3.90;;;;;;;21.39;76.01;102603.72;5097135;28;20031;-68
2021/08/23 01:04:16;;;;;;;5.03;3.53;;;;;;;21.41;75.88;102615.88;5082417;28;20058;-69
2021/08/23 01:06:43;;;;;;;6.32;4.07;;;;;;;21.42;75.95;102611.38;5094363;28;20024;-69
2021/08/23 01:09:11;;;;;;;5.78;3.72;;;;;;;21.41;76.14;102617.72;5100937;28;20024;-69
2021/08/23 01:11:45;;;;;;;6.28;3.80;;;;;;;21.40;76.19;102616.88;5088292;28;20071;-69
2021/08/23 01:14:10;;;;;;;5.65;3.90;;;;;;;21.40;76.21;102627.56;5074580;28;20368;-69
2021/08/23 01:16:36;;;;;;;7.50;4.20;;;;;;;21.40;76.13;102622.22;5101663;28;20038;-69
2021/08/23 01:19:02;;;;;;;6.55;3.95;;;;;;;21.42;76.14;102627.41;5089386;28;20229;-69
2021/08/23 01:21:31;;;;;;;5.93;3.72;;;;;;;21.41;76.02;102628.41;5103039;28;20055;-69
2021/08/23 01:23:59;;;;;;;7.85;4.00;;;;;;;21.42;76.05;102636.25;5097741;28;20081;-69
2021/08/23 01:26:28;;;;;;;6.25;3.90;;;;;;;21.40;76.06;102635.56;5102596;28;20544;-69
2021/08/23 01:29:00;;;;;;;7.50;4.03;;;;;;;21.40;76.13;102630.25;5108257;28;20059;-69
2021/08/23 01:31:34;;;;;;;8.32;4.00;;;;;;;21.40;75.96;102635.56;5101108;28;20032;-69
2021/08/23 01:34:00;;;;;;;5.35;3.55;;;;;;;21.41;76.00;102639.09;5089464;28;20107;-69
2021/08/23 01:36:27;;;;;;;6.65;4.03;;;;;;;21.43;76.25;102647.75;5100197;28;20130;-69
2021/08/23 01:38:53;;;;;;;5.63;3.78;;;;;;;21.40;76.30;102643.59;5097262;28;20510;-69
2021/08/23 01:41:18;;;;;;;7.88;4.40;;;;;;;21.40;75.87;102640.91;5100921;28;20239;-69
2021/08/23 01:43:44;;;;;;;8.55;3.97;;;;;;;21.42;76.26;102640.75;5103925;28;20051;-69
2021/08/23 01:46:09;;;;;;;8.60;4.05;;;;;;;21.40;76.07;102643.59;5106206;28;20035;-70
2021/08/23 01:48:35;;;;;;;6.60;3.90;;;;;;;21.40;76.23;102646.25;5093474;28;20370;-69
2021/08/23 01:51:00;;;;;;;5.85;3.88;;;;;;;21.41;76.21;102650.59;5080771;28;20470;-69
2021/08/23 01:53:26;;;;;;;6.55;4.25;;;;;;;21.41;76.03;102647.94;5104000;28;20050;-69
2021/08/23 01:55:52;;;;;;;8.05;4.25;;;;;;;21.40;76.24;102648.94;5108081;28;20032;-69
2021/08/23 01:58:18;;;;;;;5.80;3.80;;;;;;;21.41;76.21;102649.75;5112498;28;20066;-69
2021/08/23 02:00:44;;;;;;;6.93;4.38;;;;;;;21.40;76.40;102646.25;5103842;28;20027;-69
2021/08/23 02:03:09;;;;;;;7.15;3.67;;;;;;;21.40;76.02;102658.78;5099700;28;20028;-69
2021/08/23 02:05:35;;;;;;;8.27;4.40;;;;;;;21.41;76.16;102655.09;5090314;28;20039;-69
2021/08/23 02:08:01;;;;;;;7.72;4.10;;;;;;;21.41;76.04;102655.09;5063869;28;20051;-69
2021/08/23 02:10:27;;;;;;;7.75;4.00;;;;;;;21.40;75.93;102642.75;5099328;28;20044;-69
2021/08/23 02:12:52;;;;;;;6.70;3.92;;;;;;;21.41;76.12;102647.09;5098568;28;20054;-69
2021/08/23 02:15:18;;;;;;;7.50;4.35;;;;;;;21.40;76.03;102654.25;5111240;28;20110;-70
2021/08/23 02:17:43;;;;;;;5.43;3.58;;;;;;;21.41;76.21;102655.09;5111216;28;20467;-69
2021/08/23 02:20:11;;;;;;;6.38;3.95;;;;;;;21.41;76.30;102661.28;5099203;28;20075;-69
2021/08/23 02:22:37;;;;;;;5.57;3.70;;;;;;;21.40;76.14;102662.28;5090691;28;20085;-69
2021/08/23 02:25:06;;;;;;;8.93;4.38;;;;;;;21.40;75.84;102661.44;5096357;28;20028;-69
2021/08/23 02:27:32;;;;;;;7.53;4.30;;;;;;;21.40;75.88;102662.28;5105574;28;20028;-68
2021/08/23 02:29:58;;;;;;;7.13;4.22;;;;;;;21.40;76.07;102672.97;5103145;28;20121;-69
2021/08/23 02:32:23;;;;;;;6.57;4.05;;;;;;;21.39;75.89;102665.94;5104116;28;20066;-69
2021/08/23 02:34:48;;;;;;;6.95;4.13;;;;;;;21.40;76.15;102659.59;5090794;28;20038;-69
2021/08/23 02:37:14;;;;;;;6.43;3.85;;;;;;;21.38;75.91;102661.59;5083465;28;20101;-69
2021/08/23 02:39:40;;;;;;;6.35;4.07;;;;;;;21.40;76.01;102659.59;5071863;28;20402;-69
2021/08/23 02:42:05;;;;;;;7.65;4.00;;;;;;;21.37;75.80;102659.94;5079169;28;20131;-69
2021/08/23 02:44:31;;;;;;;5.22;3.90;;;;;;;21.38;76.01;102660.78;5088548;28;20036;-68
2021/08/23 02:46:56;;;;;;;6.50;3.75;;;;;;;21.40;76.13;102661.44;5083012;28;20116;-69
2021/08/23 02:49:22;;;;;;;5.13;3.63;;;;;;;21.39;75.87;102662.44;5082148;28;20074;-69
2021/08/23 02:51:48;;;;;;;8.07;4.28;;;;;;;21.38;75.90;102663.44;5088895;28;20054;-69
2021/08/23 02:54:13;;;;;;;6.80;3.92;;;;;;;21.39;76.08;102667.78;5070533;28;20398;-69
2021/08/23 02:56:39;;;;;;;8.25;4.15;;;;;;;21.39;76.22;102665.94;5073792;28;20032;-68
2021/08/23 02:59:05;;;;;;;7.22;3.85;;;;;;;21.39;75.94;102667.78;5089191;28;20044;-69
2021/08/23 03:01:30;;;;;;;6.88;3.88;;;;;;;21.37;76.12;102673.28;5076339;28;20207;-69
2021/08/23 03:03:56;;;;;;;6.15;3.85;;;;;;;21.38;76.29;102663.44;5075188;28;20042;-69
2021/08/23 03:06:21;;;;;;;8.25;4.53;;;;;;;21.39;76.10;102667.78;5077997;28;20037;-69
2021/08/23 03:08:47;;;;;;;5.60;3.40;;;;;;;21.38;75.82;102672.28;5087910;28;20387;-69
2021/08/23 03:11:14;;;;;;;6.75;3.90;;;;;;;21.39;76.29;102665.94;5079683;28;20060;-69
2021/08/23 03:13:44;;;;;;;7.30;3.78;;;;;;;21.39;76.00;102670.44;5070664;28;20040;-69
2021/08/23 03:16:11;;;;;;;7.95;3.97;;;;;;;21.39;75.91;102668.63;5081272;28;20111;-69
2021/08/23 03:18:36;;;;;;;7.63;4.22;;;;;;;21.39;75.77;102668.63;5069351;28;20032;-68
2021/08/23 03:21:02;;;;;;;7.10;4.03;;;;;;;21.39;76.09;102676.63;5082953;28;20039;-69
2021/08/23 03:23:29;;;;;;;7.45;3.83;;;;;;;21.39;75.93;102671.28;5069572;28;20033;-69
2021/08/23 03:25:55;;;;;;;6.90;4.05;;;;;;;21.38;75.99;102677.63;5074120;28;20056;-69
2021/08/23 03:28:21;;;;;;;6.30;3.78;;;;;;;21.40;76.18;102666.78;5087720;28;20060;-69
2021/08/23 03:30:47;;;;;;;5.57;3.70;;;;;;;21.39;75.98;102676.63;5073856;28;20035;-69
2021/08/23 03:33:14;;;;;;;5.95;3.88;;;;;;;21.40;76.21;102674.78;5061848;28;20033;-69
2021/08/23 03:35:39;;;;;;;6.10;3.80;;;;;;;21.39;75.65;102673.97;5051926;28;20063;-69
2021/08/23 03:38:05;;;;;;;5.80;3.85;;;;;;;21.39;76.09;102673.97;5088266;28;20047;-69
2021/08/23 03:40:31;;;;;;;6.15;3.92;;;;;;;21.39;76.07;102663.28;5075576;28;20032;-69
2021/08/23 03:42:56;;;;;;;5.47;3.50;;;;;;;21.38;75.96;102663.44;5050136;28;20097;-69
2021/08/23 03:45:21;;;;;;;5.95;3.47;;;;;;;21.39;75.87;102663.28;5078913;28;20326;-69
2021/08/23 03:47:47;;;;;;;7.07;3.67;;;;;;;21.38;75.62;102663.44;5086521;28;20055;-69
2021/08/23 03:50:13;;;;;;;5.47;3.60;;;;;;;21.38;75.99;102669.63;5080435;28;20033;-69
2021/08/23 03:52:38;;;;;;;6.43;3.38;;;;;;;21.39;75.62;102668.63;5068267;28;20208;-69
2021/08/23 03:55:05;;;;;;;6.72;3.78;;;;;;;21.38;75.91;102668.78;5087431;28;20036;-69
2021/08/23 03:57:33;;;;;;;5.35;3.55;;;;;;;21.38;75.79;102677.63;5057454;28;20028;-70
2021/08/23 03:59:59;;;;;;;5.82;3.55;;;;;;;21.39;75.77;102673.97;5082605;28;20036;-69
2021/08/23 04:02:24;;;;;;;5.90;3.63;;;;;;;21.39;75.90;102679.28;5068307;28;20025;-69
2021/08/23 04:04:50;;;;;;;4.22;3.28;;;;;;;21.38;75.70;102677.63;5082149;28;20395;-69
2021/08/23 04:07:15;;;;;;;6.30;3.60;;;;;;;21.37;75.70;102673.28;5088793;28;20452;-69
2021/08/23 04:09:41;;;;;;;6.85;3.50;;;;;;;21.37;75.89;102678.63;5088684;28;20028;-69
2021/08/23 04:12:07;;;;;;;5.45;3.45;;;;;;;21.37;75.55;102673.28;5074687;28;20115;-69
2021/08/23 04:14:32;;;;;;;5.53;3.88;;;;;;;21.37;75.95;102672.47;5079752;28;20048;-69
2021/08/23 04:16:58;;;;;;;4.88;3.22;;;;;;;21.37;75.56;102681.28;5084844;28;20356;-69
2021/08/23 04:19:24;;;;;;;5.68;3.47;;;;;;;21.37;75.77;102681.28;5080692;28;20067;-69
2021/08/23 04:21:49;;;;;;;4.65;3.17;;;;;;;21.37;75.81;102691.13;5050735;28;20111;-69
2021/08/23 04:24:14;;;;;;;4.53;3.50;;;;;;;21.37;75.89;102691.13;5087824;28;20331;-69
2021/08/23 04:26:40;;;;;;;5.10;3.13;;;;;;;21.37;75.76;102694.66;5076495;28;20043;-69
2021/08/23 04:29:06;;;;;;;5.25;3.47;;;;;;;21.37;75.44;102693.81;5069324;28;20032;-69
2021/08/23 04:31:31;;;;;;;5.93;3.45;;;;;;;21.37;75.54;102697.31;5068316;28;20032;-69
2021/08/23 04:33:57;;;;;;;4.97;3.60;;;;;;;21.37;75.83;102699.16;5067425;28;20403;-69
2021/08/23 04:36:24;;;;;;;5.90;3.40;;;;;;;21.37;75.47;102702.66;5069111;28;20057;-69
2021/08/23 04:38:49;;;;;;;5.10;3.35;;;;;;;21.37;75.39;102708.00;5098133;28;20036;-69
2021/08/23 04:41:15;;;;;;;4.70;3.38;;;;;;;21.36;75.81;102714.34;5101035;28;20024;-69
2021/08/23 04:43:40;;;;;;;5.68;3.38;;;;;;;21.35;75.78;102710.00;5098420;28;20540;-69
2021/08/23 04:46:06;;;;;;;6.28;3.70;;;;;;;21.36;75.53;102710.84;5093306;28;20032;-69
2021/08/23 04:48:31;;;;;;;5.50;3.45;;;;;;;21.36;75.48;102717.00;5106970;28;20031;-69
2021/08/23 04:50:57;;;;;;;4.28;3.08;;;;;;;21.35;75.78;102715.34;5106638;28;20035;-69
2021/08/23 04:53:23;;;;;;;5.82;3.53;;;;;;;21.35;75.32;102715.34;5108621;28;20039;-69
2021/08/23 04:55:48;;;;;;;5.28;3.15;;;;;;;21.36;75.41;102721.50;5111496;28;20036;-69
2021/08/23 04:58:13;;;;;;;5.30;3.38;;;;;;;21.34;75.65;102719.00;5096870;28;20080;-69
2021/08/23 05:00:39;;;;;;;5.47;3.33;;;;;;;21.35;75.56;102715.34;5105571;28;20081;-69
2021/08/23 05:03:06;;;;;;;5.28;3.53;;;;;;;21.34;75.12;102716.34;5092143;28;20032;-69
2021/08/23 05:05:32;;;;;;;4.57;3.20;;;;;;;21.34;75.38;102713.66;5092236;28;20085;-69
2021/08/23 05:07:57;;;;;;;4.82;3.20;;;;;;;21.35;75.31;102720.69;5092857;28;20047;-69
2021/08/23 05:10:22;;;;;;;5.20;3.55;;;;;;;21.34;75.65;102721.69;5094623;28;20083;-69
2021/08/23 05:12:48;;;;;;;4.55;3.30;;;;;;;21.35;75.45;102730.50;5103634;28;20024;-69
2021/08/23 05:15:13;;;;;;;4.75;3.30;;;;;;;21.33;75.45;102733.34;5106776;28;20478;-69
2021/08/23 05:17:39;;;;;;;4.65;3.20;;;;;;;21.33;75.54;102733.34;5074395;28;20028;-70
2021/08/23 05:20:05;;;;;;;4.95;3.03;;;;;;;21.35;75.23;102742.03;5104938;28;20044;-69
2021/08/23 05:22:31;;;;;;;4.80;3.10;;;;;;;21.33;75.54;102744.03;5107076;28;20039;-69
2021/08/23 05:24:56;;;;;;;4.25;2.95;;;;;;;21.34;75.10;102742.19;5091635;28;20031;-69
2021/08/23 05:27:22;;;;;;;5.50;3.15;;;;;;;21.33;75.45;102738.69;5107743;28;20134;-69
2021/08/23 05:29:47;;;;;;;5.28;3.45;;;;;;;21.33;75.16;102743.19;5103265;28;20464;-69
2021/08/23 05:32:16;;;;;;;4.57;3.17;;;;;;;21.33;75.41;102746.69;5105210;28;20459;-69
2021/08/23 05:34:44;;;;;;;4.57;3.00;;;;;;;21.34;75.17;102742.19;5084861;28;20445;-69
2021/08/23 05:37:11;;;;;;;4.40;3.22;;;;;;;21.33;75.18;102741.34;5098460;28;20051;-69
2021/08/23 05:39:36;;;;;;;4.40;2.97;;;;;;;21.33;74.97;102745.88;5103868;28;20097;-69
2021/08/23 05:42:02;;;;;;;4.78;3.00;;;;;;;21.33;75.26;102749.38;5102580;28;20028;-69
2021/08/23 05:44:27;;;;;;;3.97;2.95;;;;;;;21.33;75.29;102753.88;5093490;28;20055;-69
2021/08/23 05:46:53;;;;;;;4.97;3.45;;;;;;;21.33;75.10;102759.22;5092010;28;20036;-69
2021/08/23 05:49:18;;;;;;;4.38;3.03;;;;;;;21.33;75.05;102759.22;5103875;28;20042;-69
2021/08/23 05:51:44;;;;;;;5.95;3.00;;;;;;;21.32;75.18;102761.03;5097952;28;20035;-69
2021/08/23 05:54:10;;;;;;;5.30;3.30;;;;;;;21.32;75.10;102763.72;5111057;28;20043;-69
2021/08/23 05:56:40;;;;;;;4.30;2.92;;;;;;;21.31;75.37;102756.72;5095450;28;20489;-69
2021/08/23 05:59:07;;;;;;;3.90;2.83;;;;;;;21.32;74.87;102761.03;5093148;28;20118;-69
2021/08/23 06:01:32;;;;;;;4.85;3.40;;;;;;;21.33;75.03;102767.22;5093507;28;20040;-69
2021/08/23 06:03:58;;;;;;;4.82;3.10;;;;;;;21.32;75.21;102763.72;5097642;28;20634;-69
2021/08/23 06:06:23;;;;;;;5.45;3.42;;;;;;;21.32;75.19;102771.72;5110958;28;20031;-70
2021/08/23 06:08:49;;;;;;;4.38;3.05;;;;;;;21.32;75.11;102765.56;5097128;28;20039;-69
2021/08/23 06:11:14;;;;;;;4.13;3.10;;;;;;;21.32;74.88;102766.38;5093091;28;20028;-69
2021/08/23 06:13:39;;;;;;;4.55;3.30;;;;;;;21.32;75.12;102771.72;5096286;28;20109;-69
2021/08/23 06:16:05;;;;;;;4.40;2.85;;;;;;;21.32;75.13;102766.38;5103431;28;20035;-69
2021/08/23 06:18:30;;;;;;;4.40;3.05;;;;;;;21.32;75.21;102774.41;5072058;28;20032;-69
2021/08/23 06:20:58;;;;;;;5.32;3.15;;;;;;;21.31;75.05;102778.06;5111378;28;20500;-69
2021/08/23 06:23:23;;;;;;;4.65;2.92;;;;;;;21.32;75.05;102774.41;5081159;28;20032;-69
2021/08/23 06:25:49;;;;;;;4.72;3.13;;;;;;;21.32;74.91;102778.91;5068196;28;20062;-69
2021/08/23 06:28:14;;;;;;;3.78;2.80;;;;;;;21.30;74.74;102776.38;5082225;28;20494;-69
2021/08/23 06:30:40;;;;;;;4.10;2.75;;;;;;;21.32;74.84;102779.72;5091106;28;20035;-69
2021/08/23 06:33:05;;;;;;;4.72;2.78;;;;;;;21.30;75.15;102773.69;5109753;28;20040;-69
2021/08/23 06:35:30;;;;;;;4.28;2.83;;;;;;;21.32;74.97;102779.72;5109738;28;20556;-69
2021/08/23 06:37:56;;;;;;;3.97;2.80;;;;;;;21.32;74.69;102784.25;5076700;28;20050;-69
2021/08/23 06:40:23;;;;;;;4.53;2.90;;;;;;;21.32;75.03;102785.06;5109623;28;20059;-69
2021/08/23 06:42:48;;;;;;;4.90;2.72;;;;;;;21.31;75.00;102779.91;5094692;28;20032;-69
2021/08/23 06:45:13;;;;;;;4.68;2.97;;;;;;;21.31;75.01;102778.06;5100467;28;20036;-69
2021/08/23 06:47:39;;;;;;;4.13;3.05;;;;;;;21.31;74.62;102783.41;5072673;28;20063;-70
2021/08/23 06:50:05;;;;;;;3.88;2.90;;;;;;;21.32;74.98;102781.56;5090762;28;20028;-69
2021/08/23 06:52:31;;;;;;;4.07;2.85;;;;;;;21.32;74.93;102792.25;5109360;28;20044;-69
2021/08/23 06:54:56;;;;;;;3.67;2.80;;;;;;;21.31;74.66;102793.25;5094148;28;20032;-69
2021/08/23 06:57:22;;;;;;;4.72;2.95;;;;;;;21.31;74.58;102790.56;5101243;28;20042;-69
2021/08/23 06:59:47;;;;;;;4.43;3.00;;;;;;;21.31;74.93;102799.41;5089160;28;20795;-68
2021/08/23 07:02:12;;;;;;;4.35;3.05;;;;;;;21.32;74.77;102800.25;5091505;28;20453;-68
2021/08/23 07:04:38;;;;;;;4.55;3.00;;;;;;;21.32;74.98;102808.25;5101755;28;20039;-68
2021/08/23 07:07:04;;;;;;;3.90;2.63;;;;;;;21.32;74.68;102811.78;5092241;28;20137;-68
2021/08/23 07:09:29;;;;;;;4.22;2.60;;;;;;;21.34;75.01;102811.59;5099750;28;20046;-68
2021/08/23 07:11:55;;;;;;;4.43;2.88;;;;;;;21.34;74.71;102811.59;5103660;28;20119;-68
2021/08/23 07:14:20;;;;;;;6.05;2.95;;;;;;;21.34;74.90;102812.44;5096234;28;20459;-67
2021/08/23 07:16:46;;;;;;;4.45;2.97;;;;;;;21.36;75.10;102813.13;5107690;28;20043;-67
2021/08/23 07:19:11;;;;;;;8.57;2.72;;;;;;;21.37;75.23;102820.13;5102623;28;20051;-66
2021/08/23 07:21:37;;;;;;;3.72;2.90;;;;;;;21.40;75.41;102821.63;5095367;28;20066;-67
2021/08/23 07:24:02;;;;;;;5.72;2.85;;;;;;;21.40;75.27;102818.97;5095860;28;20040;-68
2021/08/23 07:26:28;;;;;;;7.40;3.30;;;;;;;21.41;75.21;102820.63;5090769;28;20044;-69
2021/08/23 07:28:54;;;;;;;7.50;3.45;;;;;;;21.41;75.39;102826.81;5093023;28;20040;-67
2021/08/23 07:31:21;;;;;;;9.55;2.90;;;;;;;21.44;75.51;102831.00;5095840;28;20044;-66
2021/08/23 07:33:46;;;;;;;14.43;2.88;;;;;;;21.42;75.87;102823.13;5104031;28;20039;-66
2021/08/23 07:36:11;;;;;;;6.20;3.33;;;;;;;21.43;75.92;102826.66;5107673;28;20052;-66
2021/08/23 07:38:37;;;;;;;6.70;3.20;;;;;;;21.45;75.47;102827.31;5091197;28;20048;-73
2021/08/23 07:41:03;;;;;;;5.75;3.40;;;;;;;21.44;75.45;102826.47;5088895;28;20051;-68
2021/08/23 07:43:30;;;;;;;5.25;3.47;;;;;;;21.45;75.69;102830.81;5100832;28;20051;-68
2021/08/23 07:45:55;;;;;;;13.02;5.40;;;;;;;21.45;75.51;102840.66;5093191;28;20034;-68
2021/08/23 07:48:21;;;;;;;12.65;5.35;;;;;;;21.44;75.24;102842.50;5099981;28;20032;-68
2021/08/23 07:50:46;;;;;;;13.23;6.00;;;;;;;21.43;75.23;102842.66;5095492;28;20451;-68
2021/08/23 07:53:12;;;;;;;10.88;5.72;;;;;;;21.42;74.70;102843.66;5095772;28;20036;-68
2021/08/23 07:55:38;;;;;;;12.77;6.00;;;;;;;21.41;74.50;102842.00;5094584;28;20531;-68
2021/08/23 07:58:03;;;;;;;12.63;5.78;;;;;;;21.39;74.32;102844.81;5095505;28;20071;-71
2021/08/23 08:00:29;;;;;;;10.63;5.30;;;;;;;21.37;74.11;102844.16;5090329;28;20059;-68
2021/08/23 08:02:54;;;;;;;10.88;5.40;;;;;;;21.38;73.82;102836.97;5100308;28;20435;-68
2021/08/23 08:05:20;;;;;;;12.57;5.78;;;;;;;21.36;73.72;102839.81;5076474;28;20574;-68
2021/08/23 08:07:45;;;;;;;11.57;5.25;;;;;;;21.37;73.60;102841.47;5098641;28;20055;-68
2021/08/23 08:10:13;;;;;;;11.32;5.53;;;;;;;21.35;73.24;102843.47;5103462;28;20039;-68
2021/08/23 08:12:39;;;;;;;11.73;5.57;;;;;;;21.35;73.17;102843.47;5100326;28;20062;-68
2021/08/23 08:15:06;;;;;;;11.38;5.30;;;;;;;21.35;73.26;102846.16;5089373;28;20110;-70
2021/08/23 08:17:31;;;;;;;9.77;4.90;;;;;;;21.34;72.92;102847.16;5089763;28;20143;-70
2021/08/23 08:19:57;;;;;;;12.52;4.80;;;;;;;21.34;72.81;102852.50;5089499;28;20368;-68
2021/08/23 08:22:22;;;;;;;7.60;4.65;;;;;;;21.34;72.85;102846.31;5090622;28;20036;-68
2021/08/23 08:24:48;;;;;;;8.95;4.63;;;;;;;21.34;72.67;102846.31;5087287;28;20547;-69
2021/08/23 08:27:14;;;;;;;9.68;5.07;;;;;;;21.34;72.53;102849.81;5057615;28;20075;-70
2021/08/23 08:29:40;;;;;;;8.80;4.50;;;;;;;21.34;72.71;102849.81;5069311;28;20030;-68
2021/08/23 08:32:06;;;;;;;7.47;3.63;;;;;;;21.35;72.60;102853.31;5101369;28;20039;-70
2021/08/23 08:34:32;;;;;;;8.15;3.90;;;;;;;21.34;72.37;102857.00;5073769;28;20043;-69
2021/08/23 08:36:58;;;;;;;8.75;4.07;;;;;;;21.34;72.45;102863.16;5107999;28;20052;-69
2021/08/23 08:39:24;;;;;;;7.43;4.18;;;;;;;21.35;72.02;102864.84;5087656;28;20047;-69
2021/08/23 08:41:49;;;;;;;6.80;3.50;;;;;;;21.35;72.20;102878.19;5107920;28;20031;-69
2021/08/23 08:44:15;;;;;;;8.55;3.65;;;;;;;21.35;71.87;102874.69;5105261;28;20351;-69
2021/08/23 08:46:42;;;;;;;7.18;3.65;;;;;;;21.35;72.03;102874.69;5100592;28;20055;-68
2021/08/23 08:49:11;;;;;;;6.60;3.05;;;;;;;21.34;71.91;102873.84;5088319;28;20175;-68
2021/08/23 08:51:38;;;;;;;5.40;3.70;;;;;;;21.34;71.43;102868.50;5106013;28;20032;-68
2021/08/23 08:54:05;;;;;;;5.40;3.50;;;;;;;21.34;71.51;102865.84;5107326;28;20028;-70
2021/08/23 08:56:34;;;;;;;6.25;3.33;;;;;;;21.34;71.48;102881.03;5074056;28;20382;-70
2021/08/23 08:59:02;;;;;;;5.97;3.42;;;;;;;21.34;71.56;102881.84;5100277;28;20032;-68
2021/08/23 09:01:27;;;;;;;7.30;3.80;;;;;;;21.34;71.27;102879.19;5076524;28;20094;-67
2021/08/23 09:04:00;;;;;;;5.88;3.78;;;;;;;21.33;71.18;102882.84;5099997;28;20044;-67
2021/08/23 09:06:25;;;;;;;9.30;3.70;;;;;;;21.35;71.39;102885.34;5100343;28;20024;-67
2021/08/23 09:08:51;;;;;;;5.50;3.33;;;;;;;21.35;71.16;102885.34;5074182;28;20041;-67
2021/08/23 09:11:18;;;;;;;5.05;3.22;;;;;;;21.35;71.45;102890.69;5107420;28;20114;-67
2021/08/23 09:14:01;;;;;;;7.38;3.85;;;;;;;21.32;71.40;102889.19;5105388;28;20479;-70
2021/08/23 09:16:29;;;;;;;6.80;3.40;;;;;;;21.36;70.99;102892.38;5097453;28;20040;-67
2021/08/23 09:18:55;;;;;;;7.22;3.65;;;;;;;21.35;70.98;102888.88;5102571;28;20020;-67
2021/08/23 09:21:29;;;;;;;5.82;3.42;;;;;;;21.34;71.15;102892.53;5107898;28;20044;-67
2021/08/23 09:23:58;;;;;;;5.83;3.77;;;;;;;21.36;71.31;102892.38;5092395;28;20107;-68
2021/08/23 09:26:29;;;;;;;5.68;3.40;;;;;;;21.36;70.68;102887.03;5107162;28;20027;-67
2021/08/23 09:29:03;;;;;;;7.78;3.33;;;;;;;21.35;70.43;102886.19;5091908;28;20567;-67
2021/08/23 09:31:32;;;;;;;6.25;3.25;;;;;;;21.34;70.73;102891.69;5096469;28;20505;-67
2021/08/23 09:33:59;;;;;;;5.03;3.22;;;;;;;21.36;70.27;102893.22;5105680;28;20092;-68
2021/08/23 09:36:26;;;;;;;4.70;3.25;;;;;;;21.37;70.26;102900.22;5081841;28;20459;-67
2021/08/23 09:39:04;;;;;;;4.93;2.80;;;;;;;21.34;70.35;102899.72;5094688;28;20051;-67
2021/08/23 09:41:30;;;;;;;6.05;3.30;;;;;;;21.37;70.08;102891.38;5109557;28;20046;-67
2021/08/23 09:44:07;;;;;;;5.20;3.10;;;;;;;21.36;69.96;102897.72;5110497;28;20387;-67
2021/08/23 09:46:34;;;;;;;5.40;3.17;;;;;;;21.37;70.29;102899.38;5097037;28;20023;-67
2021/08/23 09:49:08;;;;;;;5.85;3.00;;;;;;;21.36;69.85;102895.88;5110457;28;20070;-67
2021/08/23 09:51:41;;;;;;;5.93;3.40;;;;;;;21.36;69.89;102895.03;5096277;28;20059;-67
2021/08/23 09:54:10;;;;;;;5.45;3.20;;;;;;;21.37;70.08;102904.72;5098888;28;20111;-67
2021/08/23 09:56:56;;;;;;;4.97;3.30;;;;;;;21.34;69.81;102902.38;5104275;28;20340;-67
2021/08/23 09:59:24;;;;;;;5.40;3.10;;;;;;;21.39;69.44;102908.91;5090639;28;20063;-67
2021/08/23 10:01:53;;;;;;;4.95;3.45;;;;;;;21.37;69.70;102908.22;5097941;28;20032;-66
2021/08/23 10:04:19;;;;;;;4.85;3.20;;;;;;;21.37;69.40;102904.72;5101977;28;20036;-67
2021/08/23 10:06:46;;;;;;;5.00;3.42;;;;;;;21.36;69.57;102911.91;5105528;28;20051;-66
2021/08/23 10:09:21;;;;;;;4.47;3.15;;;;;;;21.36;69.45;102911.06;5091145;28;20040;-67
2021/08/23 10:11:47;;;;;;;5.18;3.30;;;;;;;21.37;69.46;102910.91;5091913;28;20119;-67
2021/08/23 10:14:13;;;;;;;4.95;3.30;;;;;;;21.36;69.14;102919.91;5104914;28;20032;-67
2021/08/23 10:16:39;;;;;;;5.38;3.33;;;;;;;21.36;69.31;102911.91;5104312;28;20038;-67
2021/08/23 10:19:05;;;;;;;5.78;3.60;;;;;;;21.36;68.93;102922.56;5106021;28;20062;-67
2021/08/23 10:21:32;;;;;;;4.32;3.10;;;;;;;21.34;68.62;102913.88;5102424;28;20089;-68
2021/08/23 10:23:58;;;;;;;6.03;3.88;;;;;;;21.34;68.76;102916.56;5089779;28;21402;-68
2021/08/23 10:26:25;;;;;;;6.43;3.25;;;;;;;21.35;68.70;102915.56;5100488;28;20136;-68
2021/08/23 10:28:51;;;;;;;5.50;3.05;;;;;;;21.35;68.52;102917.41;5096866;28;20028;-67
2021/08/23 10:31:19;;;;;;;5.18;3.05;;;;;;;21.35;68.92;102923.56;5097511;28;20040;-67
2021/08/23 10:33:46;;;;;;;5.53;3.58;;;;;;;21.37;68.74;102923.41;5109832;28;20036;-67
2021/08/23 10:36:17;;;;;;;5.75;3.20;;;;;;;21.37;68.80;102931.41;5103930;28;20048;-68
2021/08/23 10:38:44;;;;;;;6.28;3.40;;;;;;;21.35;68.62;102928.91;5091050;28;20036;-67
2021/08/23 10:41:15;;;;;;;5.57;3.60;;;;;;;21.37;68.64;102932.25;5103144;28;20036;-68
2021/08/23 10:43:46;;;;;;;5.50;3.20;;;;;;;21.35;68.53;102926.25;5101143;28;20038;-68
2021/08/23 10:46:23;;;;;;;8.35;3.35;;;;;;;21.34;68.28;102929.91;5105636;28;20028;-67
2021/08/23 10:48:50;;;;;;;5.55;3.38;;;;;;;21.37;68.36;102924.25;5100347;28;20102;-67
2021/08/23 10:51:33;;;;;;;4.90;3.58;;;;;;;21.34;68.54;102927.25;5094587;28;20482;-67
2021/08/23 10:54:00;;;;;;;4.55;2.97;;;;;;;21.37;68.69;102932.25;5109566;28;20035;-67
2021/08/23 10:56:46;;;;;;;5.43;3.65;;;;;;;21.34;68.27;102931.75;5094447;28;20023;-68
2021/08/23 10:59:16;;;;;;;5.15;3.80;;;;;;;21.37;68.35;102937.59;5109074;28;20548;-67
2021/08/23 11:01:56;;;;;;;5.80;4.03;;;;;;;21.35;68.34;102936.09;5093033;28;20143;-67
2021/08/23 11:04:39;;;;;;;7.85;4.55;;;;;;;21.33;68.14;102946.09;5100285;28;20035;-67
2021/08/23 11:07:10;;;;;;;5.18;4.10;;;;;;;21.33;68.10;102941.59;5104003;28;20024;-67
2021/08/23 11:09:45;;;;;;;5.40;3.83;;;;;;;21.34;68.43;102940.59;5089446;28;20074;-68
2021/08/23 11:12:11;;;;;;;6.68;3.92;;;;;;;21.34;68.38;102942.41;5107937;28;20458;-67
2021/08/23 11:14:54;;;;;;;7.07;4.80;;;;;;;21.29;68.57;102940.19;5100548;28;20031;-68
2021/08/23 11:17:33;;;;;;;7.10;4.38;;;;;;;21.29;68.20;102940.19;5104429;28;20184;-67
2021/08/23 11:20:08;;;;;;;6.13;4.40;;;;;;;21.30;68.48;102941.88;5089070;28;20042;-67
2021/08/23 11:22:34;;;;;;;7.00;4.40;;;;;;;21.31;68.49;102943.56;5109722;28;20044;-67